Decoded Metar for KLRY ( in ) (IATA:) | Meteo·Mobile Aviation Weather
aviador You're here:

KLRY Decoded Metar

in
Report Time2019-02-16 07:55:00
UTC Time2019-02-16 08:00:51
Flight Rules vfr VFR
Wind020° at 07 kt
W.Decomp.*RWY 35: 6.1 kt HW 3.5 kt RCW
W.Rank020° ranks 9
Current wind is below 020° avg. (7.4)
Visibility9999 m
Phenomena:N/A
Clouds:Overcast 039 Hf
Expected CloudBase > 2,000 ft AGL from Temp-Dew spread
Ceiling3,900 ft
Temp-7°C
Dew Point-12°C (68% RH)
AAT-12.7°C
QNH1020 hPa
Raw Report
KLRY 160755Z AUTO 02007KT 10SM OVC039 M07/M12 A3013 RMK AO2=

Extra information for KLRY:More info

Social comments